Time;durP1;ratioP1;P1;durP2;ratioP2;P2;SDS_P1;SDS_P2;PMS_P1;PMS_P2;Temp;Humidity;BMP_temperature;BMP_pressure;BME280_temperature;BME280_humidity;BME280_pressure;Samples;Min_cycle;Max_cycle;Signal;HPM_P1;HPM_P2
2022/10/13 00:00:37;;;;;;;55.10;16.25;;;;;;;10.04;100.00;98345.72;5041450;28;20605;-58
2022/10/13 00:03:03;;;;;;;53.58;16.10;;;;;;;10.08;100.00;98342.09;5041775;28;20032;-58
2022/10/13 00:05:29;;;;;;;55.97;16.95;;;;;;;10.07;100.00;98348.22;5041405;28;20110;-58
2022/10/13 00:07:55;;;;;;;50.40;16.88;;;;;;;9.91;100.00;98339.22;5040926;28;20135;-58
2022/10/13 00:10:20;;;;;;;61.22;17.05;;;;;;;10.42;100.00;98346.19;5041327;28;20036;-59
2022/10/13 00:12:46;;;;;;;58.88;15.70;;;;;;;10.49;100.00;98360.72;5041753;28;20033;-58
2022/10/13 00:15:11;;;;;;;57.17;13.02;;;;;;;11.00;100.00;98349.31;5040715;28;20032;-61
2022/10/13 00:17:37;;;;;;;40.50;11.95;;;;;;;11.52;100.00;98348.25;5041120;28;20063;-59
2022/10/13 00:20:05;;;;;;;40.72;12.13;;;;;;;11.94;100.00;98343.06;5041507;28;20032;-57
2022/10/13 00:22:31;;;;;;;50.15;12.63;;;;;;;12.05;100.00;98350.47;5040787;28;20091;-60
2022/10/13 00:24:56;;;;;;;40.60;12.13;;;;;;;12.01;100.00;98363.75;5041537;28;20037;-61
2022/10/13 00:27:22;;;;;;;45.55;12.57;;;;;;;11.72;100.00;98369.19;5039909;28;20045;-58
2022/10/13 00:29:47;;;;;;;40.15;11.55;;;;;;;12.50;100.00;98364.31;5041296;28;20036;-60
2022/10/13 00:32:12;;;;;;;42.25;12.25;;;;;;;11.77;100.00;98380.31;5040036;28;20041;-60
2022/10/13 00:34:38;;;;;;;39.17;11.70;;;;;;;11.66;100.00;98371.22;5041033;28;20028;-60
2022/10/13 00:37:04;;;;;;;49.17;15.93;;;;;;;10.51;100.00;98382.41;5040513;28;20424;-58
2022/10/13 00:39:30;;;;;;;53.40;14.70;;;;;;;10.59;100.00;98375.16;5040494;28;20028;-58
2022/10/13 00:41:57;;;;;;;49.83;15.00;;;;;;;10.53;100.00;98380.59;5041050;28;20041;-60
2022/10/13 00:44:58;;;;;;;68.75;17.38;;;;;;;10.08;100.00;98367.34;5040317;28;20053;-57
2022/10/13 00:47:29;;;;;;;62.00;17.83;;;;;;;10.10;100.00;98368.97;5039301;28;20828;-58
2022/10/13 00:49:56;;;;;;;48.50;14.23;;;;;;;10.47;100.00;98370.34;5040843;28;20059;-57
2022/10/13 00:52:24;;;;;;;41.70;11.40;;;;;;;10.81;100.00;98371.78;5040589;28;20502;-57
2022/10/13 00:54:50;;;;;;;50.92;13.88;;;;;;;10.77;100.00;98373.66;5038439;28;20024;-57
2022/10/13 00:57:19;;;;;;;50.92;16.23;;;;;;;9.92;100.00;98369.56;5039860;28;20623;-59
2022/10/13 00:59:44;;;;;;;63.65;17.20;;;;;;;9.70;100.00;98357.22;5040379;28;20080;-59
2022/10/13 01:23:55;;;;;;;223.60;27.40;;;;;;;9.65;100.00;98375.63;5971957;23;20021;-60
2022/10/13 01:44:52;;;;;;;228.95;33.22;;;;;;;9.61;100.00;98367.94;5971605;23;20021;-60
2022/10/13 02:00:19;;;;;;;69.22;17.38;;;;;;;9.65;100.00;98349.56;5862513;23;20057;-58
2022/10/13 02:02:49;;;;;;;50.83;14.50;;;;;;;9.74;100.00;98348.44;5002726;28;20532;-58
2022/10/13 02:05:42;;;;;;;43.83;14.38;;;;;;;9.89;100.00;98348.81;5010120;28;20112;-59
2022/10/13 02:08:13;;;;;;;43.17;14.73;;;;;;;9.81;100.00;98357.75;5013943;28;20076;-57
2022/10/13 02:10:55;;;;;;;54.10;15.25;;;;;;;9.70;100.00;98353.78;5009727;28;20034;-57
2022/10/13 02:13:25;;;;;;;46.63;15.53;;;;;;;9.82;100.00;98351.63;5012253;28;20041;-57
2022/10/13 02:15:54;;;;;;;46.65;15.45;;;;;;;9.82;100.00;98346.44;4991469;28;20840;-59
2022/10/13 02:18:25;;;;;;;53.40;16.15;;;;;;;9.54;100.00;98337.78;5010495;28;20040;-58
2022/10/13 02:20:52;;;;;;;53.80;15.30;;;;;;;9.69;100.00;98326.88;5008595;28;20048;-58
2022/10/13 02:23:18;;;;;;;42.92;13.38;;;;;;;9.95;100.00;98325.19;5012693;28;20843;-57
2022/10/13 02:25:44;;;;;;;48.63;15.45;;;;;;;9.84;100.00;98329.00;5010659;28;20038;-57
2022/10/13 02:28:12;;;;;;;49.05;16.13;;;;;;;9.84;100.00;98329.00;5011522;28;20033;-57
2022/10/13 02:30:39;;;;;;;45.10;14.82;;;;;;;9.88;100.00;98323.69;5011026;28;20459;-57
2022/10/13 02:33:06;;;;;;;51.78;15.85;;;;;;;9.83;100.00;98326.44;5009097;28;20030;-58
2022/10/13 02:35:32;;;;;;;48.53;16.58;;;;;;;9.88;100.00;98329.75;5012056;28;20037;-57
2022/10/13 02:37:58;;;;;;;52.92;15.50;;;;;;;9.74;100.00;98335.41;5013188;28;20043;-57
2022/10/13 02:40:24;;;;;;;39.10;13.00;;;;;;;10.02;100.00;98322.31;5010857;28;20053;-57
2022/10/13 02:42:50;;;;;;;39.30;13.77;;;;;;;9.83;100.00;98337.72;5013824;28;20100;-58
2022/10/13 02:45:15;;;;;;;53.50;16.00;;;;;;;9.68;100.00;98335.59;5010845;28;20109;-57
2022/10/13 02:47:41;;;;;;;41.78;13.63;;;;;;;9.89;100.00;98325.38;5010068;28;20025;-57
2022/10/13 02:50:07;;;;;;;48.85;15.45;;;;;;;9.89;100.00;98321.03;5010997;28;20028;-57
2022/10/13 02:52:32;;;;;;;45.13;14.00;;;;;;;9.79;100.00;98328.28;5011592;28;20025;-57
2022/10/13 02:54:58;;;;;;;42.70;15.05;;;;;;;9.75;100.00;98328.44;5012042;28;20034;-58
2022/10/13 02:57:23;;;;;;;48.40;15.48;;;;;;;10.03;100.00;98328.38;5011487;28;20526;-57
2022/10/13 02:59:48;;;;;;;59.85;16.70;;;;;;;10.06;100.00;98333.50;5011052;28;20025;-57
2022/10/13 03:02:14;;;;;;;46.92;14.70;;;;;;;9.78;100.00;98328.34;5012316;28;20064;-56
2022/10/13 03:04:39;;;;;;;39.72;14.55;;;;;;;10.02;100.00;98322.31;5014917;28;20041;-57
2022/10/13 03:07:05;;;;;;;51.40;15.88;;;;;;;9.99;100.00;98322.41;5014140;28;20052;-60
2022/10/13 03:09:31;;;;;;;54.22;17.05;;;;;;;9.84;100.00;98326.38;5009779;28;20022;-59
2022/10/13 03:11:56;;;;;;;45.97;16.35;;;;;;;9.40;100.00;98320.84;5011875;28;20037;-59
2022/10/13 03:14:21;;;;;;;38.42;14.55;;;;;;;9.72;100.00;98324.16;5014202;28;20033;-57
2022/10/13 03:16:47;;;;;;;53.45;16.95;;;;;;;9.65;100.00;98320.09;5011027;28;20038;-60
2022/10/13 03:19:12;;;;;;;45.30;15.57;;;;;;;10.08;100.00;98305.63;5011450;28;20283;-60
2022/10/13 03:21:38;;;;;;;47.15;12.35;;;;;;;10.33;100.00;98320.44;5010184;28;20414;-59
2022/10/13 03:24:06;;;;;;;54.15;16.80;;;;;;;10.37;100.00;98329.88;5012466;28;20056;-57
2022/10/13 03:26:33;;;;;;;52.45;16.52;;;;;;;9.62;100.00;98325.38;5012068;28;20117;-59
2022/10/13 03:28:59;;;;;;;37.53;14.55;;;;;;;9.95;100.00;98314.75;5015627;28;20029;-57
2022/10/13 03:31:24;;;;;;;32.20;12.88;;;;;;;10.37;100.00;98316.84;5013435;28;20048;-58
2022/10/13 03:33:50;;;;;;;54.78;16.83;;;;;;;10.31;100.00;98332.69;5013417;28;20030;-58
2022/10/13 03:36:16;;;;;;;35.38;10.88;;;;;;;10.63;100.00;98325.50;5013280;28;20029;-57
2022/10/13 03:38:42;;;;;;;54.25;17.00;;;;;;;9.73;100.00;98336.31;5011076;28;20029;-59
2022/10/13 03:41:13;;;;;;;48.40;16.15;;;;;;;9.70;100.00;98319.91;5015091;28;20439;-59
2022/10/13 03:43:39;;;;;;;52.67;17.83;;;;;;;9.33;100.00;98311.50;5013891;28;20071;-58
2022/10/13 03:46:05;;;;;;;33.92;10.90;;;;;;;10.38;100.00;98308.09;5013581;28;20164;-59
2022/10/13 03:48:32;;;;;;;46.15;16.33;;;;;;;9.48;100.00;98327.56;5013764;28;20384;-57
2022/10/13 03:50:57;;;;;;;44.67;15.80;;;;;;;9.35;100.00;98314.91;5010130;28;20563;-60
2022/10/13 03:53:23;;;;;;;45.58;15.80;;;;;;;9.33;100.00;98315.88;5010890;28;20156;-59
2022/10/13 03:55:50;;;;;;;44.78;13.80;;;;;;;10.37;100.00;98303.81;5010111;28;20086;-58
2022/10/13 03:58:15;;;;;;;46.00;15.25;;;;;;;10.41;100.00;98313.22;5013419;28;20033;-60
2022/10/13 04:00:40;;;;;;;49.40;17.58;;;;;;;9.63;100.00;98321.84;5013618;28;20095;-58
2022/10/13 04:03:06;;;;;;;58.15;17.88;;;;;;;9.80;100.00;98316.97;5010159;28;20122;-58
2022/10/13 04:05:33;;;;;;;48.88;16.73;;;;;;;9.88;100.00;98311.50;5009381;28;20748;-59
2022/10/13 04:07:58;;;;;;;52.90;17.20;;;;;;;9.86;100.00;98307.25;5013630;28;20033;-57
2022/10/13 04:10:24;;;;;;;49.05;16.95;;;;;;;9.69;100.00;98311.25;5011307;28;20054;-57
2022/10/13 04:12:49;;;;;;;49.42;16.25;;;;;;;9.95;100.00;98309.56;5008888;28;20764;-58
2022/10/13 04:15:14;;;;;;;51.08;14.35;;;;;;;10.65;100.00;98301.03;5011102;28;20033;-60
2022/10/13 04:17:40;;;;;;;45.30;16.58;;;;;;;10.01;100.00;98304.97;5008888;28;20706;-61
2022/10/13 04:20:06;;;;;;;53.58;16.27;;;;;;;10.10;100.00;98298.59;5009522;28;20018;-57
2022/10/13 04:22:31;;;;;;;50.13;15.80;;;;;;;10.05;100.00;98292.69;5011841;28;20092;-57
2022/10/13 04:24:56;;;;;;;46.22;15.23;;;;;;;10.01;100.00;98297.16;5012164;28;20064;-57
2022/10/13 04:27:22;;;;;;;52.92;16.98;;;;;;;10.26;100.00;98296.31;5014987;28;20586;-57
2022/10/13 04:29:48;;;;;;;52.88;14.48;;;;;;;10.59;100.00;98296.06;5012914;28;20541;-57
2022/10/13 04:32:13;;;;;;;42.22;13.50;;;;;;;10.31;100.00;98290.97;5012942;28;20030;-57
2022/10/13 04:34:38;;;;;;;45.05;14.48;;;;;;;10.32;100.00;98287.47;5015316;28;20104;-56
2022/10/13 04:37:04;;;;;;;45.42;16.77;;;;;;;9.83;100.00;98295.16;5015779;28;20134;-59
2022/10/13 04:39:29;;;;;;;46.90;16.15;;;;;;;10.29;100.00;98283.16;5015414;28;20034;-58
2022/10/13 04:41:54;;;;;;;34.20;12.55;;;;;;;10.55;100.00;98290.09;5014109;28;20582;-60
2022/10/13 04:44:20;;;;;;;53.30;17.55;;;;;;;10.23;100.00;98292.03;5015850;28;20592;-59
2022/10/13 04:46:45;;;;;;;42.78;15.63;;;;;;;10.24;100.00;98279.88;5013152;28;20068;-59
2022/10/13 04:49:11;;;;;;;46.05;16.10;;;;;;;10.53;100.00;98286.72;5010727;28;20524;-59
2022/10/13 04:51:36;;;;;;;51.80;17.08;;;;;;;10.05;100.00;98287.47;5011995;28;20430;-58
2022/10/13 04:54:04;;;;;;;39.03;15.05;;;;;;;10.43;100.00;98274.88;5014587;28;20026;-58
2022/10/13 04:56:30;;;;;;;51.65;18.17;;;;;;;10.74;100.00;98273.78;5016590;28;20091;-59
2022/10/13 04:58:56;;;;;;;49.42;17.48;;;;;;;10.80;100.00;98279.59;5016850;28;20116;-57
2022/10/13 05:01:23;;;;;;;50.25;16.92;;;;;;;10.72;100.00;98281.66;5012891;28;20155;-57
2022/10/13 05:03:57;;;;;;;62.13;18.65;;;;;;;10.22;100.00;98277.31;5013217;28;20041;-57
2022/10/13 05:06:25;;;;;;;52.55;17.30;;;;;;;10.63;100.00;98275.94;5014568;28;20072;-56
2022/10/13 05:08:51;;;;;;;50.45;15.90;;;;;;;11.15;100.00;98271.34;5012163;28;20545;-57
2022/10/13 05:11:18;;;;;;;48.33;17.05;;;;;;;10.27;100.00;98276.31;5014635;28;20483;-59
2022/10/13 05:13:44;;;;;;;49.80;16.50;;;;;;;10.37;100.00;98262.09;5013083;28;20119;-58
2022/10/13 05:16:12;;;;;;;49.42;17.40;;;;;;;10.61;100.00;98269.00;5013223;28;20106;-56
2022/10/13 05:18:37;;;;;;;45.40;15.55;;;;;;;10.76;100.00;98267.56;5014781;28;20032;-60
2022/10/13 05:21:10;;;;;;;46.97;17.65;;;;;;;10.66;100.00;98275.81;5011253;28;20038;-57
2022/10/13 05:23:36;;;;;;;44.30;16.17;;;;;;;10.55;100.00;98274.44;5017689;28;20047;-57
2022/10/13 05:26:03;;;;;;;57.72;18.60;;;;;;;10.51;100.00;98256.34;5014316;28;20040;-58
2022/10/13 05:28:29;;;;;;;42.03;16.95;;;;;;;10.69;100.00;98260.03;5014630;28;20100;-57
2022/10/13 05:30:54;;;;;;;50.35;17.40;;;;;;;10.43;100.00;98259.25;5013095;28;20041;-60
2022/10/13 05:33:20;;;;;;;55.50;17.73;;;;;;;10.82;100.00;98266.50;5013291;28;20048;-57
2022/10/13 05:35:45;;;;;;;45.22;16.15;;;;;;;10.98;100.00;98265.00;5013303;28;20042;-56
2022/10/13 05:38:11;;;;;;;53.33;17.75;;;;;;;10.84;100.00;98269.06;5014288;28;20515;-57
2022/10/13 05:40:36;;;;;;;46.13;17.23;;;;;;;11.03;100.00;98277.03;5011406;28;20062;-60
2022/10/13 05:43:02;;;;;;;44.40;16.50;;;;;;;10.78;100.00;98272.75;5014638;28;20454;-59
2022/10/13 05:45:31;;;;;;;41.92;16.20;;;;;;;10.72;100.00;98273.81;5012898;28;20039;-56
2022/10/13 05:47:56;;;;;;;45.25;17.92;;;;;;;10.55;100.00;98274.44;5011497;28;20041;-57
2022/10/13 05:50:21;;;;;;;49.90;18.60;;;;;;;10.86;100.00;98273.28;5012686;28;20057;-57
2022/10/13 05:52:47;;;;;;;46.28;17.17;;;;;;;11.11;100.00;98272.38;5012981;28;20057;-56
2022/10/13 05:55:16;;;;;;;55.05;18.50;;;;;;;10.49;100.00;98277.25;5012654;28;20034;-58
2022/10/13 05:57:44;;;;;;;51.30;18.05;;;;;;;10.25;100.00;98265.94;5013220;28;20037;-58
2022/10/13 06:00:14;;;;;;;49.60;18.48;;;;;;;10.79;100.00;98279.69;5011810;28;20033;-57
2022/10/13 06:02:48;;;;;;;45.05;17.67;;;;;;;10.47;100.00;98281.69;5009796;28;20561;-58
2022/10/13 06:05:17;;;;;;;51.83;18.45;;;;;;;10.79;100.00;98283.13;5011689;28;20033;-57
2022/10/13 06:07:44;;;;;;;52.70;18.05;;;;;;;10.67;100.00;98278.34;5011349;28;20056;-57
2022/10/13 06:10:11;;;;;;;52.22;18.45;;;;;;;11.03;100.00;98284.84;5013269;28;20608;-57
2022/10/13 06:12:36;;;;;;;48.53;18.13;;;;;;;10.89;100.00;98278.41;5017931;28;20021;-57
2022/10/13 06:15:02;;;;;;;44.67;17.58;;;;;;;11.40;100.00;98283.44;5014136;28;20930;-57
2022/10/13 06:17:28;;;;;;;50.67;19.13;;;;;;;11.26;100.00;98284.81;5011655;28;20060;-57
2022/10/13 06:19:53;;;;;;;54.53;19.40;;;;;;;11.40;100.00;98288.66;5012299;28;20033;-58
2022/10/13 06:22:20;;;;;;;47.42;18.23;;;;;;;11.14;100.00;98285.31;5016264;28;20034;-56
2022/10/13 06:24:46;;;;;;;54.90;18.65;;;;;;;10.99;100.00;98285.00;5012572;28;20061;-58
2022/10/13 06:27:11;;;;;;;48.75;18.52;;;;;;;11.09;100.00;98276.81;5011626;28;20802;-56
2022/10/13 06:29:36;;;;;;;55.25;18.38;;;;;;;11.17;100.00;98277.34;5012423;28;20033;-59
2022/10/13 06:32:02;;;;;;;51.53;18.25;;;;;;;10.80;100.00;98273.53;5013748;28;20068;-60
2022/10/13 06:34:27;;;;;;;53.92;18.15;;;;;;;10.87;100.00;98277.63;5015094;28;20025;-58
2022/10/13 06:36:53;;;;;;;55.45;19.50;;;;;;;10.92;100.00;98278.31;5012327;28;20038;-58
2022/10/13 06:39:18;;;;;;;51.45;18.77;;;;;;;11.17;100.00;98282.56;5010920;28;20048;-57
2022/10/13 06:41:43;;;;;;;59.10;18.77;;;;;;;11.33;100.00;98288.03;5007792;28;20037;-59
2022/10/13 06:44:10;;;;;;;47.67;17.98;;;;;;;11.37;100.00;98290.47;5012901;28;20028;-60
2022/10/13 06:46:35;;;;;;;44.63;17.10;;;;;;;11.46;100.00;98288.41;5014311;28;20049;-59
2022/10/13 06:49:01;;;;;;;54.00;18.05;;;;;;;11.32;100.00;98286.34;5011023;28;20021;-60
2022/10/13 06:51:26;;;;;;;48.35;18.20;;;;;;;11.51;100.00;98289.09;5011628;28;20819;-58
2022/10/13 06:53:51;;;;;;;50.78;18.27;;;;;;;11.50;100.00;98297.81;5014926;28;20029;-59
2022/10/13 06:56:17;;;;;;;49.60;17.75;;;;;;;11.65;100.00;98298.97;5013030;28;20036;-59
2022/10/13 06:58:42;;;;;;;50.42;18.23;;;;;;;11.56;100.00;98300.19;5012739;28;20493;-61
2022/10/13 07:01:11;;;;;;;47.65;18.85;;;;;;;11.58;100.00;98293.16;5011217;28;20131;-61
2022/10/13 07:03:36;;;;;;;52.35;18.95;;;;;;;11.49;100.00;98283.91;5013854;28;20076;-59
2022/10/13 07:06:04;;;;;;;53.67;19.00;;;;;;;11.98;100.00;98291.53;5012506;28;20067;-60
2022/10/13 07:08:31;;;;;;;49.25;18.92;;;;;;;11.94;100.00;98297.81;5014059;28;20116;-58
2022/10/13 07:10:56;;;;;;;50.15;18.48;;;;;;;12.03;100.00;98297.41;5010748;28;20188;-58
2022/10/13 07:13:22;;;;;;;48.05;18.08;;;;;;;12.00;100.00;98289.69;5010129;28;20500;-59
2022/10/13 07:15:47;;;;;;;54.83;18.85;;;;;;;12.08;100.00;98298.06;5009687;28;20037;-60
2022/10/13 07:18:12;;;;;;;52.00;18.20;;;;;;;12.38;100.00;98284.59;5012215;28;20661;-59
2022/10/13 07:20:38;;;;;;;54.70;19.13;;;;;;;12.22;100.00;98288.78;5012109;28;20116;-58
2022/10/13 07:23:03;;;;;;;53.40;18.98;;;;;;;12.58;100.00;98277.63;5010359;28;20436;-58
2022/10/13 07:25:29;;;;;;;57.38;18.88;;;;;;;12.50;100.00;98278.81;5012970;28;20041;-58
2022/10/13 07:27:54;;;;;;;49.13;18.73;;;;;;;12.65;100.00;98271.22;5012369;28;20030;-59
2022/10/13 07:30:19;;;;;;;55.30;19.50;;;;;;;12.81;100.00;98269.59;5010756;28;20128;-58
2022/10/13 07:32:45;;;;;;;51.88;19.05;;;;;;;12.80;100.00;98269.66;5010531;28;20022;-58
2022/10/13 07:35:11;;;;;;;53.45;18.35;;;;;;;12.92;100.00;98275.19;5013273;28;20048;-59
2022/10/13 07:37:37;;;;;;;47.88;18.38;;;;;;;13.11;100.00;98279.56;5010122;28;20386;-59
2022/10/13 07:40:04;;;;;;;45.97;16.73;;;;;;;12.62;100.00;98289.66;5009405;28;20463;-59
2022/10/13 07:42:30;;;;;;;47.15;17.10;;;;;;;12.85;100.00;98273.78;5011631;28;20080;-59
2022/10/13 07:44:55;;;;;;;49.38;17.27;;;;;;;12.49;100.00;98282.34;5012858;28;20026;-58
2022/10/13 07:47:20;;;;;;;46.60;16.30;;;;;;;12.63;100.00;98283.53;5011715;28;20041;-58
2022/10/13 07:49:46;;;;;;;46.50;15.52;;;;;;;12.71;100.00;98286.63;5013380;28;20112;-57
2022/10/13 07:52:12;;;;;;;49.17;16.98;;;;;;;12.95;100.00;98278.56;5007420;28;20040;-58
2022/10/13 07:54:37;;;;;;;48.95;15.25;;;;;;;13.09;100.00;98282.25;5010884;28;20026;-58
2022/10/13 07:57:03;;;;;;;38.30;15.48;;;;;;;12.81;100.00;98285.31;5012388;28;20025;-60
2022/10/13 07:59:30;;;;;;;48.90;16.08;;;;;;;12.98;100.00;98283.69;5012713;28;20103;-58
2022/10/13 08:01:55;;;;;;;41.17;16.25;;;;;;;12.92;100.00;98284.78;5009513;28;20506;-59
2022/10/13 08:04:21;;;;;;;45.67;16.52;;;;;;;13.10;100.00;98291.81;5011059;28;20494;-57
2022/10/13 08:06:46;;;;;;;40.88;15.82;;;;;;;13.39;100.00;98294.00;5012997;28;20095;-59
2022/10/13 08:09:12;;;;;;;43.95;16.48;;;;;;;13.13;100.00;98293.44;5013025;28;20399;-58
2022/10/13 08:11:38;;;;;;;47.70;16.58;;;;;;;13.03;100.00;98287.78;5010884;28;20044;-59
2022/10/13 08:14:03;;;;;;;43.78;14.90;;;;;;;13.21;100.00;98285.22;5015712;28;20022;-58
2022/10/13 08:16:31;;;;;;;42.35;15.95;;;;;;;13.20;100.00;98287.00;5012452;28;20075;-58
2022/10/13 08:18:58;;;;;;;46.13;15.98;;;;;;;13.54;100.00;98293.25;5015198;28;20523;-57
2022/10/13 08:21:26;;;;;;;46.38;15.73;;;;;;;14.06;100.00;98295.06;5010452;28;20593;-58
2022/10/13 08:23:51;;;;;;;39.65;15.73;;;;;;;13.94;100.00;98295.72;5012128;28;20053;-58
2022/10/13 08:26:25;;;;;;;41.00;15.55;;;;;;;14.39;100.00;98296.91;5016049;28;20060;-58
2022/10/13 08:28:51;;;;;;;47.55;16.10;;;;;;;14.65;100.00;98306.09;5016624;28;20116;-59
2022/10/13 08:31:17;;;;;;;41.42;15.80;;;;;;;14.29;100.00;98307.03;5010292;28;20406;-58
2022/10/13 08:33:46;;;;;;;39.47;14.32;;;;;;;14.03;100.00;98301.34;5015058;28;20033;-58
2022/10/13 08:36:11;;;;;;;40.13;15.10;;;;;;;13.89;100.00;98298.53;5012426;28;20730;-58
2022/10/13 08:38:37;;;;;;;40.70;14.57;;;;;;;14.26;100.00;98301.94;5016886;28;20033;-57
2022/10/13 08:41:22;;;;;;;43.22;14.85;;;;;;;14.46;100.00;98303.53;5016266;28;20077;-59
2022/10/13 08:43:50;;;;;;;45.08;15.30;;;;;;;14.24;100.00;98303.78;5015846;28;20029;-60
2022/10/13 08:46:25;;;;;;;43.45;14.75;;;;;;;14.36;100.00;98297.94;5015194;28;20817;-59
2022/10/13 08:48:50;;;;;;;44.08;14.90;;;;;;;14.05;100.00;98299.47;5016285;28;20025;-60
2022/10/13 08:51:16;;;;;;;40.10;14.27;;;;;;;14.18;100.00;98299.72;5013745;28;20389;-59
2022/10/13 08:53:44;;;;;;;37.42;13.07;;;;;;;13.97;100.00;98306.91;5013364;28;20030;-59
2022/10/13 08:56:21;;;;;;;40.78;15.27;;;;;;;13.68;100.00;98306.56;5014165;28;20064;-57
2022/10/13 08:58:48;;;;;;;39.90;14.35;;;;;;;13.97;100.00;98301.66;5013999;28;20087;-57
2022/10/13 09:01:18;;;;;;;39.35;13.68;;;;;;;13.83;100.00;98304.94;5012164;28;20045;-57
2022/10/13 09:04:09;;;;;;;43.92;13.95;;;;;;;14.11;100.00;98297.47;5014952;28;20420;-58
2022/10/13 09:06:50;;;;;;;75.00;14.32;;;;;;;13.85;100.00;98303.09;5015708;28;20247;-60
2022/10/13 09:09:16;;;;;;;36.65;12.18;;;;;;;14.10;100.00;98301.00;5013537;28;20244;-58
2022/10/13 09:11:44;;;;;;;34.20;12.18;;;;;;;13.71;100.00;98304.69;5009436;28;20034;-60
2022/10/13 09:14:22;;;;;;;44.72;13.50;;;;;;;14.16;100.00;98300.72;5013486;28;20051;-61
2022/10/13 09:16:49;;;;;;;37.50;12.57;;;;;;;15.06;100.00;98302.19;5011771;28;20087;-58
2022/10/13 09:19:35;;;;;;;39.80;12.98;;;;;;;15.01;100.00;98310.28;5015220;28;20072;-59
2022/10/13 09:22:22;;;;;;;36.72;12.25;;;;;;;14.77;100.00;98315.94;5010403;28;20076;-58
2022/10/13 09:25:05;;;;;;;38.63;12.30;;;;;;;14.86;100.00;98316.38;5012347;28;20042;-59
2022/10/13 09:27:44;;;;;;;36.70;12.18;;;;;;;14.32;100.00;98306.88;5013218;28;20817;-59
2022/10/13 09:30:34;;;;;;;37.88;12.00;;;;;;;15.21;100.00;98303.97;5010197;28;20026;-58
2022/10/13 09:33:10;;;;;;;31.88;11.43;;;;;;;14.47;100.00;98310.50;5014429;28;20036;-57
2022/10/13 09:35:37;;;;;;;31.33;11.48;;;;;;;14.22;100.00;98295.16;5014005;28;20044;-58
2022/10/13 09:38:12;;;;;;;35.53;11.02;;;;;;;14.74;100.00;98296.88;5013305;28;20033;-62
2022/10/13 09:40:39;;;;;;;39.53;11.43;;;;;;;14.70;100.00;98301.44;5013590;28;20118;-59
2022/10/13 10:00:20;;;;;;;36.42;11.50;;;;;;;14.63;100.00;98284.31;5013693;28;20209;-58
2022/10/13 10:03:04;;;;;;;38.92;11.65;;;;;;;14.40;100.00;98291.59;5012009;28;20609;-58
2022/10/13 10:05:56;;;;;;;32.97;10.82;;;;;;;15.02;100.00;98289.22;5014276;28;20046;-57
2022/10/13 10:08:45;;;;;;;41.22;10.95;;;;;;;15.38;100.00;98303.00;5014021;28;20148;-58
2022/10/13 10:11:16;;;;;;;28.73;10.68;;;;;;;15.28;100.00;98301.84;5011947;28;20045;-57
2022/10/13 10:13:41;;;;;;;38.53;11.40;;;;;;;15.06;100.00;98302.19;5013860;28;20083;-57
2022/10/13 10:16:30;;;;;;;32.85;10.70;;;;;;;15.32;100.00;98298.13;5011826;28;20033;-57
2022/10/13 10:19:01;;;;;;;32.33;10.75;;;;;;;15.56;100.00;98295.88;5014574;28;20034;-57
2022/10/13 10:22:04;;;;;;;32.15;10.30;;;;;;;15.59;100.00;98298.34;5012301;28;20099;-59
2022/10/13 10:24:40;;;;;;;31.33;10.68;;;;;;;15.55;100.00;98296.81;5013183;28;20052;-59
2022/10/13 10:27:17;;;;;;;29.15;9.55;;;;;;;15.87;100.00;98299.44;5013809;28;20095;-60
2022/10/13 10:29:59;;;;;;;32.28;9.90;;;;;;;16.09;100.00;98306.91;5014908;28;20025;-58
2022/10/13 10:32:32;;;;;;;28.92;10.07;;;;;;;15.62;100.00;98298.16;5016128;28;20128;-57
2022/10/13 10:35:00;;;;;;;39.65;11.35;;;;;;;16.12;100.00;98302.31;5014821;28;20144;-57
2022/10/13 10:37:53;;;;;;;28.23;10.48;;;;;;;15.27;100.00;98297.50;5014173;28;20033;-60
2022/10/13 10:40:47;;;;;;;30.30;10.82;;;;;;;15.59;100.00;98293.94;5014464;28;20709;-59
2022/10/13 10:43:37;;;;;;;42.22;11.48;;;;;;;15.65;100.00;98291.91;5011335;28;20029;-60
2022/10/13 10:46:10;;;;;;;33.00;11.48;;;;;;;15.59;100.00;98291.31;5013829;28;20097;-59
2022/10/13 10:48:38;;;;;;;34.80;11.13;;;;;;;16.01;100.00;98286.34;5012464;28;20026;-58
2022/10/13 10:51:08;;;;;;;34.78;11.80;;;;;;;15.62;100.00;98274.50;5010291;28;20037;-58
2022/10/13 10:54:14;;;;;;;27.85;10.63;;;;;;;15.56;100.00;98270.44;5012482;28;20045;-57
2022/10/13 10:56:48;;;;;;;28.02;10.00;;;;;;;15.60;100.00;98261.47;5012106;28;20033;-58
2022/10/13 10:59:16;;;;;;;32.03;10.70;;;;;;;15.75;100.00;98258.88;5014209;28;20033;-59
2022/10/13 11:01:57;;;;;;;32.75;10.27;;;;;;;15.58;100.00;98258.03;5012031;28;20629;-59
2022/10/13 11:04:39;;;;;;;40.60;11.20;;;;;;;15.84;100.00;98257.50;5016262;28;20126;-57
2022/10/13 11:07:12;;;;;;;;;;;;;;;15.90;100.00;98254.50;5011585;28;20044;-58
2022/10/13 11:09:41;;;;;;;31.48;10.63;;;;;;;15.53;100.00;98254.84;5012098;28;19912;-59
2022/10/13 11:12:45;;;;;;;26.02;9.85;;;;;;;16.21;100.00;98245.69;5013276;28;20045;-58
2022/10/13 11:15:15;;;;;;;31.60;10.20;;;;;;;15.91;100.00;98243.91;5013899;28;20025;-59
2022/10/13 11:17:41;;;;;;;31.17;10.60;;;;;;;15.86;100.00;98238.09;5016528;28;20467;-58
2022/10/13 11:20:19;;;;;;;27.83;9.50;;;;;;;16.51;100.00;98226.31;5011412;28;20133;-59
2022/10/13 11:22:56;;;;;;;30.48;9.73;;;;;;;16.55;100.00;98227.81;5012881;28;20040;-59
2022/10/13 11:25:58;;;;;;;29.73;9.68;;;;;;;16.91;100.00;98229.97;5011673;28;20032;-58
2022/10/13 11:28:26;;;;;;;29.90;9.75;;;;;;;17.28;100.00;98226.78;5012806;28;20110;-57
2022/10/13 11:31:14;;;;;;;23.17;9.65;;;;;;;17.53;100.00;98221.59;5010806;28;20768;-57
2022/10/13 11:33:39;;;;;;;36.30;10.23;;;;;;;17.30;100.00;98228.38;4984426;28;20033;-57
2022/10/13 11:36:30;;;;;;;30.53;9.57;;;;;;;17.54;100.00;98231.19;5010501;28;20075;-58
2022/10/13 11:39:21;;;;;;;48.80;9.70;;;;;;;17.87;100.00;98229.91;5009572;28;21010;-58
2022/10/13 11:42:29;;;;;;;31.15;9.15;;;;;;;17.42;100.00;98225.88;5006279;28;20454;-57
2022/10/13 11:45:01;;;;;;;29.65;8.65;;;;;;;16.94;100.00;98224.50;5017535;28;20045;-59
2022/10/13 11:47:55;;;;;;;28.70;8.35;;;;;;;18.08;100.00;98221.50;5015873;28;20033;-59
2022/10/13 11:50:33;;;;;;;30.63;8.60;;;;;;;17.79;100.00;98221.66;5015045;28;20018;-57
2022/10/13 11:53:17;;;;;;;25.92;7.50;;;;;;;17.32;100.00;98218.56;5016503;28;20788;-57
2022/10/13 11:55:50;;;;;;;26.58;7.88;;;;;;;16.89;100.00;98208.16;5015603;28;20057;-56
2022/10/13 11:58:15;;;;;;;27.95;8.57;;;;;;;16.91;100.00;98202.78;5016607;28;20137;-58
2022/10/13 12:01:00;;;;;;;28.23;8.38;;;;;;;17.01;100.00;98209.16;5012568;28;20115;-58
2022/10/13 12:03:32;;;;;;;33.45;8.65;;;;;;;16.74;100.00;98209.06;5016860;28;20033;-59
2022/10/13 12:06:03;;;;;;;31.70;8.40;;;;;;;16.94;100.00;98192.03;5011833;28;20080;-60
2022/10/13 12:08:32;;;;;;;30.47;8.73;;;;;;;16.75;100.00;98198.44;5016704;28;20037;-57
2022/10/13 12:11:01;;;;;;;30.83;8.50;;;;;;;16.86;100.00;98194.34;5015283;28;20044;-57
2022/10/13 12:13:30;;;;;;;29.63;8.20;;;;;;;17.18;100.00;98194.03;5014363;28;20120;-58
2022/10/13 12:16:06;;;;;;;27.23;7.55;;;;;;;17.41;100.00;98198.66;5013311;28;20053;-58
2022/10/13 12:18:35;;;;;;;27.30;8.63;;;;;;;17.03;100.00;98202.00;5012303;28;20083;-58
2022/10/13 12:21:03;;;;;;;27.55;8.13;;;;;;;16.89;100.00;98194.97;5013864;28;20135;-58
2022/10/13 12:23:31;;;;;;;32.38;8.55;;;;;;;16.79;100.00;98188.56;5014465;28;20769;-57
2022/10/13 12:25:57;;;;;;;31.92;8.20;;;;;;;16.84;100.00;98185.69;5017558;28;20042;-58
2022/10/13 12:28:49;;;;;;;37.33;9.35;;;;;;;17.20;100.00;98184.25;5019077;28;20136;-59
2022/10/13 12:31:44;;;;;;;38.42;9.15;;;;;;;16.68;100.00;98176.06;5003258;28;20643;-58
2022/10/13 12:34:26;;;;;;;37.05;8.90;;;;;;;16.64;100.00;98174.56;5014898;28;20068;-57